Gilman, Minnesota
Current Conditions -  °F | °C
As of 9:53 AM on Wednesday 22 Oct 2014 (Local Time) from KSTC Reporting Station
Overcast Overcast  
Wind Chill: 50°   Ceiling: 4700
Heat Index: 50°   Visibility: 10mi
Dew Point: 38°   Wind: 16mph
Humidity: 63%   Direction: 140°SE
Pressure: 30.12"   Gusts: 25mph
Location:  45.74°N, 93.95°W
Report Text: KSTC 221453Z 14014G22KT 10SM OVC047 10/03 A3012 RMK AO2 SLP211 T01000033 56006
Loading
Personal Weather Stations






























Interactive Weather Map
Tropical Storm Tracking
New forecast layout! Learn more

10-Day Weather Forecast

Advertisements
Track Severe Weather on mobile